createdAt,value
2023-03-21T00:05:09.373Z,0.0
2023-03-21T00:10:16.598Z,0.0
2023-03-21T00:15:44.114Z,0.0
2023-03-21T00:20:44.367Z,0.0
2023-03-21T00:25:27.802Z,0.0
2023-03-21T00:31:08.293Z,0.0
2023-03-21T00:36:19.765Z,0.0
2023-03-21T00:41:40.951Z,0.0
2023-03-21T00:46:39.897Z,0.0
2023-03-21T00:51:36.541Z,0.0
2023-03-21T00:57:06.957Z,0.0
2023-03-21T01:01:49.392Z,0.0
2023-03-21T01:06:55.837Z,0.0
2023-03-21T01:12:02.214Z,0.0
2023-03-21T01:17:08.591Z,0.0
2023-03-21T01:22:15.001Z,0.0
2023-03-21T01:27:21.355Z,0.0
2023-03-21T01:32:31.764Z,0.0
2023-03-21T01:37:24.328Z,0.0
2023-03-21T01:42:39.913Z,0.0
2023-03-21T01:52:55.283Z,0.0
2023-03-21T01:58:07.625Z,0.0
2023-03-21T02:03:15.249Z,0.0
2023-03-21T02:08:13.644Z,0.0
2023-03-21T02:13:20.972Z,0.0
2023-03-21T02:18:27.453Z,0.0
2023-03-21T02:23:53.908Z,0.0
2023-03-21T02:28:40.233Z,0.0
2023-03-21T02:33:46.621Z,0.0
2023-03-21T02:42:04.920Z,0.0
2023-03-21T02:44:31.002Z,0.0
2023-03-21T02:49:09.384Z,0.0
2023-03-21T02:54:34.979Z,0.0
2023-03-21T02:59:21.150Z,0.0
2023-03-21T03:04:28.639Z,0.0
2023-03-21T03:09:38.910Z,0.0
2023-03-21T03:15:04.068Z,0.0
2023-03-21T03:19:50.504Z,0.0
2023-03-21T03:24:54.073Z,0.0
2023-03-21T03:30:21.409Z,0.0
2023-03-21T03:35:06.836Z,0.0
2023-03-21T03:40:47.513Z,0.0
2023-03-21T03:45:54.967Z,0.0
2023-03-21T03:51:01.362Z,0.0
2023-03-21T03:57:07.842Z,0.0
2023-03-21T04:01:14.326Z,0.0
2023-03-21T04:06:48.565Z,0.0
2023-03-21T04:11:26.901Z,0.0
2023-03-21T04:16:53.339Z,0.0
2023-03-21T04:22:03.861Z,0.0
2023-03-21T04:26:46.312Z,0.0
2023-03-21T04:31:52.714Z,0.0
2023-03-21T04:37:03.122Z,0.0
2023-03-21T04:42:39.630Z,0.0
2023-03-21T04:48:15.205Z,0.0
2023-03-21T04:52:53.452Z,0.0
2023-03-21T04:57:58.886Z,0.0
2023-03-21T05:03:06.308Z,0.0
2023-03-21T05:08:32.801Z,0.0
2023-03-21T05:13:19.184Z,0.0
2023-03-21T05:18:25.560Z,0.0
2023-03-21T05:23:56.019Z,0.0
2023-03-21T05:28:38.442Z,0.0
2023-03-21T05:33:44.819Z,0.0
2023-03-21T05:38:55.233Z,5.0
2023-03-21T05:44:01.611Z,5.0
2023-03-21T05:49:07.981Z,10.0
2023-03-21T05:54:14.386Z,10.0
2023-03-21T05:59:18.191Z,10.0
2023-03-21T06:04:44.805Z,15.0
2023-03-21T06:09:31.234Z,20.0
2023-03-21T06:14:37.744Z,30.0
2023-03-21T06:19:44.119Z,40.0
2023-03-21T06:24:40.479Z,45.0
2023-03-21T06:30:00.899Z,35.0
2023-03-21T06:35:03.236Z,35.0
2023-03-21T06:40:13.731Z,35.0
2023-03-21T06:45:16.040Z,40.0
2023-03-21T06:50:22.396Z,45.0
2023-03-21T06:55:32.780Z,70.0
2023-03-21T07:00:35.232Z,75.0
2023-03-21T07:05:41.521Z,85.0
2023-03-21T07:10:47.926Z,80.0
2023-03-21T07:15:54.371Z,70.0
2023-03-21T07:21:00.699Z,65.0
2023-03-21T07:31:17.818Z,60.0
2023-03-21T07:36:44.139Z,70.0
2023-03-21T07:41:26.492Z,85.0
2023-03-21T07:46:32.924Z,85.0
2023-03-21T07:51:59.646Z,85.0
2023-03-21T07:56:45.997Z,95.0
2023-03-21T08:01:52.599Z,105.0
2023-03-21T08:07:33.844Z,110.0
2023-03-21T08:12:41.216Z,120.0
2023-03-21T08:17:47.658Z,130.0
2023-03-21T08:22:54.073Z,145.0
2023-03-21T08:28:00.389Z,145.0
2023-03-21T08:33:06.832Z,140.0
2023-03-21T08:38:13.168Z,135.0
2023-03-21T08:43:09.623Z,140.0
2023-03-21T08:48:26.120Z,140.0
2023-03-21T08:53:53.031Z,145.0
2023-03-21T08:58:38.901Z,180.0
2023-03-21T09:03:46.159Z,200.0
2023-03-21T09:10:08.091Z,205.0
2023-03-21T09:13:59.151Z,230.0
2023-03-21T09:19:05.394Z,180.0
2023-03-21T09:24:11.758Z,160.0
2023-03-21T09:29:18.140Z,185.0
2023-03-21T09:35:24.731Z,200.0
2023-03-21T09:39:31.025Z,180.0
2023-03-21T09:50:07.565Z,120.0
2023-03-21T09:54:50.502Z,100.0
2023-03-21T10:00:16.907Z,170.0
2023-03-21T10:05:03.240Z,200.0
2023-03-21T10:10:09.679Z,205.0
2023-03-21T10:15:15.302Z,210.0
2023-03-21T10:20:36.718Z,200.0
2023-03-21T10:25:49.154Z,225.0
2023-03-21T10:30:35.807Z,230.0
2023-03-21T10:36:02.385Z,220.0
2023-03-21T10:40:48.466Z,250.0
2023-03-21T10:46:54.768Z,235.0
2023-03-21T10:54:24.036Z,245.0
2023-03-21T10:56:33.134Z,295.0
2023-03-21T11:01:40.402Z,255.0
2023-03-21T11:06:56.748Z,250.0
2023-03-21T11:20:41.485Z,205.0
2023-03-21T11:25:48.889Z,180.0
2023-03-21T11:30:55.302Z,170.0
2023-03-21T11:36:25.868Z,185.0
2023-03-21T11:41:12.244Z,195.0
2023-03-21T11:46:14.740Z,205.0
2023-03-21T11:51:21.046Z,175.0
2023-03-21T11:56:50.452Z,205.0
2023-03-21T12:01:33.818Z,260.0
2023-03-21T12:06:40.217Z,300.0
2023-03-21T12:11:46.706Z,320.0
2023-03-21T12:16:43.084Z,345.0
2023-03-21T12:21:59.463Z,335.0
2023-03-21T12:27:05.851Z,280.0
2023-03-21T12:32:16.393Z,240.0
2023-03-21T12:37:18.679Z,210.0
2023-03-21T12:42:25.102Z,200.0
2023-03-21T12:48:15.855Z,190.0
2023-03-21T12:52:37.992Z,185.0
2023-03-21T12:57:51.132Z,200.0
2023-03-21T13:02:50.756Z,225.0
2023-03-21T13:08:17.288Z,325.0
2023-03-21T13:13:27.546Z,330.0
2023-03-21T13:18:29.910Z,275.0
2023-03-21T13:23:16.277Z,270.0
2023-03-21T13:28:22.821Z,285.0
2023-03-21T13:33:29.062Z,210.0
2023-03-21T13:38:35.463Z,195.0
2023-03-21T13:43:41.954Z,245.0
2023-03-21T13:48:58.043Z,255.0
2023-03-21T13:53:55.713Z,275.0
2023-03-21T13:59:02.250Z,240.0
2023-03-21T14:04:08.603Z,265.0
2023-03-21T14:09:14.974Z,180.0
2023-03-21T14:14:21.493Z,130.0
2023-03-21T14:19:27.751Z,105.0
2023-03-21T14:24:34.172Z,115.0
2023-03-21T14:29:40.648Z,190.0
2023-03-21T14:34:46.903Z,155.0
2023-03-21T14:39:53.273Z,160.0
2023-03-21T14:44:59.779Z,150.0
2023-03-21T14:50:06.030Z,150.0
2023-03-21T14:55:36.758Z,170.0
2023-03-21T15:00:18.949Z,100.0
2023-03-21T15:05:45.256Z,160.0
2023-03-21T15:10:31.628Z,125.0
2023-03-21T15:15:38.706Z,210.0
2023-03-21T15:20:34.384Z,225.0
2023-03-21T15:25:50.752Z,350.0
2023-03-21T15:31:21.476Z,405.0
2023-03-21T15:36:03.535Z,350.0
2023-03-21T15:41:09.921Z,550.0
2023-03-21T15:46:16.383Z,515.0
2023-03-21T15:51:22.819Z,380.0
2023-03-21T15:56:29.078Z,310.0
2023-03-21T16:01:59.523Z,200.0
2023-03-21T16:06:41.959Z,150.0
2023-03-21T16:11:48.217Z,115.0
2023-03-21T16:16:54.572Z,85.0
2023-03-21T16:22:25.000Z,50.0
2023-03-21T16:27:07.335Z,40.0
2023-03-21T16:32:17.714Z,60.0
2023-03-21T16:37:20.258Z,110.0
2023-03-21T16:42:26.655Z,70.0
2023-03-21T16:47:33.041Z,55.0
2023-03-21T16:52:39.388Z,45.0
2023-03-21T16:57:45.936Z,25.0
2023-03-21T17:02:52.314Z,15.0
2023-03-21T17:08:18.723Z,10.0
2023-03-21T17:13:05.094Z,5.0
2023-03-21T17:18:35.495Z,5.0
2023-03-21T17:23:07.812Z,10.0
2023-03-21T17:28:24.237Z,5.0
2023-03-21T17:33:54.648Z,0.0
2023-03-21T17:38:36.961Z,5.0
2023-03-21T17:43:43.372Z,0.0
2023-03-21T17:48:53.714Z,0.0
2023-03-21T17:53:56.085Z,0.0
2023-03-21T17:59:02.518Z,0.0
2023-03-21T18:04:08.843Z,0.0
2023-03-21T18:09:05.212Z,0.0
2023-03-21T18:14:27.894Z,0.0
2023-03-21T18:19:32.026Z,0.0
2023-03-21T18:24:34.403Z,0.0
2023-03-21T18:30:20.413Z,0.0
2023-03-21T18:35:07.796Z,0.0
2023-03-21T18:39:55.201Z,0.0
2023-03-21T18:45:02.707Z,0.0
2023-03-21T18:50:14.799Z,0.0
2023-03-21T18:55:19.155Z,0.0
2023-03-21T19:00:25.448Z,0.0
2023-03-21T19:05:31.907Z,0.0
2023-03-21T19:10:38.469Z,0.0
2023-03-21T19:15:45.830Z,0.0
2023-03-21T19:21:45.107Z,0.0
2023-03-21T19:26:32.494Z,0.0
2023-03-21T19:31:38.979Z,0.0
2023-03-21T19:36:51.131Z,0.0
2023-03-21T19:42:13.402Z,0.0
2023-03-21T19:47:43.121Z,0.0
2023-03-21T19:52:05.492Z,0.0
2023-03-21T19:57:11.867Z,0.0
2023-03-21T20:03:18.411Z,0.0
2023-03-21T20:07:24.652Z,0.0
2023-03-21T20:12:51.087Z,0.0
2023-03-21T20:17:37.531Z,0.0
2023-03-21T20:23:42.075Z,0.0
2023-03-21T20:29:01.166Z,0.0
2023-03-21T20:38:58.339Z,0.0
2023-03-21T20:44:24.433Z,0.0
2023-03-21T20:48:51.039Z,0.0
2023-03-21T20:53:57.405Z,0.0
2023-03-21T20:59:16.228Z,0.0
2023-03-21T21:04:10.402Z,0.0
2023-03-21T21:09:17.826Z,0.0
2023-03-21T21:14:24.927Z,0.0
2023-03-21T21:19:45.308Z,0.0
2023-03-21T21:24:37.703Z,0.0
2023-03-21T21:29:44.112Z,0.0
2023-03-21T21:34:40.458Z,0.0
2023-03-21T21:39:56.889Z,0.0
2023-03-21T21:45:03.354Z,0.0
2023-03-21T21:50:09.704Z,0.0
2023-03-21T21:55:06.076Z,0.0
2023-03-21T22:00:22.551Z,0.0
2023-03-21T22:05:28.913Z,0.0
2023-03-21T22:10:35.281Z,0.0
2023-03-21T22:15:31.797Z,0.0
2023-03-21T22:20:48.134Z,0.0
2023-03-21T22:25:54.510Z,0.0
2023-03-21T22:31:25.015Z,0.0
2023-03-21T22:36:07.282Z,0.0
2023-03-21T22:41:13.677Z,0.0
2023-03-21T22:46:10.111Z,0.0
2023-03-21T22:51:46.643Z,0.0
2023-03-21T22:56:36.940Z,0.0
2023-03-21T23:01:39.416Z,0.0
2023-03-21T23:12:51.203Z,0.0
2023-03-21T23:17:00.070Z,0.0
2023-03-21T23:22:40.476Z,0.0
2023-03-21T23:27:47.941Z,0.0
2023-03-21T23:32:55.424Z,0.0
2023-03-21T23:38:01.794Z,0.0
2023-03-21T23:43:08.255Z,0.0
2023-03-21T23:48:38.748Z,0.0
2023-03-21T23:53:21.078Z,0.0
2023-03-21T23:58:50.490Z,0.0
